createdAt,value
2022-10-11T00:00:48.248Z,12.70
2022-10-11T00:03:14.878Z,12.40
2022-10-11T00:05:43.299Z,12.50
2022-10-11T00:08:10.753Z,12.40
2022-10-11T00:10:37.399Z,12.40
2022-10-11T00:13:04.464Z,12.60
2022-10-11T00:15:31.139Z,12.50
2022-10-11T00:18:01.027Z,12.30
2022-10-11T00:20:29.932Z,11.70
2022-10-11T00:22:56.606Z,12.10
2022-10-11T00:25:23.819Z,12.10
2022-10-11T00:27:50.368Z,12.30
2022-10-11T00:30:17.081Z,12.00
2022-10-11T00:32:43.598Z,12.10
2022-10-11T00:35:10.356Z,12.10
2022-10-11T00:37:38.437Z,11.90
2022-10-11T00:40:06.859Z,11.90
2022-10-11T00:42:34.109Z,12.00
2022-10-11T00:45:38.499Z,12.00
2022-10-11T00:48:10.850Z,12.00
2022-10-11T00:50:37.735Z,11.70
2022-10-11T00:53:11.608Z,11.70
2022-10-11T00:55:47.029Z,11.80
2022-10-11T00:58:15.552Z,11.70
2022-10-11T01:00:42.249Z,11.60
2022-10-11T01:03:09.044Z,11.50
2022-10-11T01:05:37.399Z,11.40
2022-10-11T01:08:04.789Z,11.50
2022-10-11T01:10:31.837Z,11.60
2022-10-11T01:13:18.553Z,11.40
2022-10-11T01:15:55.017Z,11.80
2022-10-11T01:18:29.255Z,11.40
2022-10-11T01:21:03.474Z,11.50
2022-10-11T01:24:08.198Z,11.20
2022-10-11T01:27:00.410Z,11.00
2022-10-11T01:29:41.708Z,11.30
2022-10-11T01:32:16.496Z,11.20
2022-10-11T01:34:48.328Z,11.30
2022-10-11T01:37:23.994Z,11.10
2022-10-11T01:39:56.547Z,11.00
2022-10-11T01:42:24.875Z,11.00
2022-10-11T01:44:53.422Z,10.80
2022-10-11T01:47:21.858Z,11.10
2022-10-11T01:49:54.089Z,10.90
2022-10-11T01:52:20.975Z,11.00
2022-10-11T01:55:12.803Z,11.00
2022-10-11T01:57:54.256Z,11.00
2022-10-11T02:00:22.742Z,10.90
2022-10-11T02:03:00.953Z,11.00
2022-10-11T02:05:35.058Z,10.70
2022-10-11T02:08:07.827Z,10.90
2022-10-11T02:10:39.453Z,10.80
2022-10-11T02:13:11.521Z,10.90
2022-10-11T02:15:41.125Z,10.80
2022-10-11T02:18:13.258Z,10.80
2022-10-11T02:20:42.325Z,10.60
2022-10-11T02:23:12.868Z,10.80
2022-10-11T02:25:42.400Z,10.60
2022-10-11T02:28:13.904Z,10.90
2022-10-11T02:30:42.109Z,10.30
2022-10-11T02:33:12.784Z,10.60
2022-10-11T02:35:43.412Z,10.50
2022-10-11T02:38:16.787Z,10.70
2022-10-11T02:40:47.751Z,10.60
2022-10-11T02:43:18.823Z,10.50
2022-10-11T02:45:50.047Z,10.50
2022-10-11T02:48:18.466Z,10.40
2022-10-11T02:50:45.274Z,10.10
2022-10-11T02:53:11.831Z,10.30
2022-10-11T02:55:38.737Z,10.40
2022-10-11T02:58:05.413Z,10.00
2022-10-11T03:00:32.083Z,10.40
2022-10-11T03:02:58.673Z,12.30
2022-10-11T03:05:26.132Z,10.40
2022-10-11T03:07:52.692Z,10.40
2022-10-11T03:10:19.235Z,10.00
2022-10-11T03:12:45.856Z,10.20
2022-10-11T03:15:12.523Z,10.30
2022-10-11T03:17:39.137Z,10.20
2022-10-11T03:20:07.105Z,10.50
2022-10-11T03:22:34.552Z,9.80
2022-10-11T03:25:04.125Z,10.20
2022-10-11T03:27:31.419Z,10.50
2022-10-11T03:29:58.171Z,10.40
2022-10-11T03:32:25.032Z,10.30
2022-10-11T03:34:51.694Z,10.30
2022-10-11T03:37:18.465Z,10.30
2022-10-11T03:39:45.760Z,10.10
2022-10-11T03:42:13.322Z,10.20
2022-10-11T03:44:41.337Z,10.00
2022-10-11T03:47:08.226Z,10.00
2022-10-11T03:49:36.123Z,10.00
2022-10-11T03:52:04.537Z,10.00
2022-10-11T03:54:31.136Z,10.10
2022-10-11T03:56:58.402Z,10.10
2022-10-11T03:59:25.091Z,9.90
2022-10-11T04:01:51.725Z,9.80
2022-10-11T04:04:18.357Z,9.90
2022-10-11T04:06:44.982Z,9.90
2022-10-11T04:09:11.612Z,9.90
2022-10-11T04:11:38.253Z,9.90
2022-10-11T04:14:05.513Z,9.80
2022-10-11T04:16:32.092Z,9.90
2022-10-11T04:18:58.978Z,9.80
2022-10-11T04:21:25.531Z,9.80
2022-10-11T04:23:52.112Z,9.90
2022-10-11T04:26:18.706Z,9.80
2022-10-11T04:28:45.281Z,9.80
2022-10-11T04:31:12.593Z,9.80
2022-10-11T04:33:39.257Z,9.80
2022-10-11T04:36:06.591Z,10.00
2022-10-11T04:38:33.604Z,9.80
2022-10-11T04:41:06.895Z,9.70
2022-10-11T04:43:33.477Z,9.40
2022-10-11T04:46:00.129Z,9.60
2022-10-11T04:48:27.364Z,9.80
2022-10-11T04:50:54.042Z,9.70
2022-10-11T04:53:20.711Z,9.70
2022-10-11T04:55:56.862Z,9.70
2022-10-11T04:58:23.463Z,9.70
2022-10-11T05:00:50.083Z,9.60
2022-10-11T05:03:16.715Z,9.70
2022-10-11T05:05:44.638Z,9.70
2022-10-11T05:08:11.941Z,9.70
2022-10-11T05:10:38.530Z,9.70
2022-10-11T05:13:05.398Z,9.70
2022-10-11T05:15:32.240Z,9.60
2022-10-11T05:17:59.036Z,9.70
2022-10-11T05:20:25.704Z,9.60
2022-10-11T05:22:52.909Z,9.60
2022-10-11T05:25:19.863Z,9.70
2022-10-11T05:27:46.455Z,9.70
2022-10-11T05:30:13.325Z,9.70
2022-10-11T05:32:39.930Z,9.60
2022-10-11T05:35:07.254Z,9.60
2022-10-11T05:37:33.853Z,9.60
2022-10-11T05:40:01.128Z,9.30
2022-10-11T05:42:27.748Z,10.10
2022-10-11T05:44:54.314Z,9.70
2022-10-11T05:47:20.909Z,9.70
2022-10-11T05:49:47.498Z,9.90
2022-10-11T05:52:19.040Z,9.70
2022-10-11T05:54:45.829Z,10.00
2022-10-11T05:57:13.360Z,9.60
2022-10-11T05:59:39.993Z,9.70
2022-10-11T06:02:10.034Z,9.80
2022-10-11T06:04:36.912Z,9.80
2022-10-11T06:07:03.571Z,9.80
2022-10-11T06:09:30.460Z,9.80
2022-10-11T06:11:57.519Z,9.90
2022-10-11T06:14:25.421Z,10.20
2022-10-11T06:16:52.008Z,9.60
2022-10-11T06:19:18.698Z,9.90
2022-10-11T06:21:45.969Z,9.90
2022-10-11T06:24:12.836Z,9.90
2022-10-11T06:26:39.514Z,9.70
2022-10-11T06:29:06.340Z,10.00
2022-10-11T06:31:33.587Z,10.40
2022-10-11T06:34:00.245Z,10.10
2022-10-11T06:36:27.352Z,10.00
2022-10-11T06:38:54.751Z,10.00
2022-10-11T06:41:23.659Z,10.40
2022-10-11T06:43:50.391Z,10.00
2022-10-11T06:46:17.561Z,10.40
2022-10-11T06:48:46.112Z,10.50
2022-10-11T06:51:14.607Z,10.60
2022-10-11T06:53:41.957Z,10.60
2022-10-11T06:56:10.596Z,10.50
2022-10-11T06:58:37.954Z,10.50
2022-10-11T07:01:06.491Z,10.40
2022-10-11T07:03:33.354Z,10.70
2022-10-11T07:06:02.825Z,10.80
2022-10-11T07:08:30.316Z,10.70
2022-10-11T07:11:00.526Z,10.90
2022-10-11T07:13:27.464Z,10.70
2022-10-11T07:15:54.148Z,11.00
2022-10-11T07:18:20.819Z,11.40
2022-10-11T07:20:47.548Z,11.10
2022-10-11T07:23:14.985Z,11.50
2022-10-11T07:25:41.677Z,11.30
2022-10-11T07:28:08.467Z,11.40
2022-10-11T07:30:38.722Z,11.30
2022-10-11T07:33:05.761Z,11.40
2022-10-11T07:35:35.593Z,11.40
2022-10-11T07:38:02.956Z,11.40
2022-10-11T07:40:30.259Z,11.40
2022-10-11T07:42:57.550Z,11.60
2022-10-11T07:45:24.703Z,11.60
2022-10-11T07:47:51.362Z,11.40
2022-10-11T07:50:18.197Z,11.60
2022-10-11T07:52:44.797Z,11.40
2022-10-11T07:55:11.436Z,11.70
2022-10-11T07:57:39.198Z,11.80
2022-10-11T08:00:07.428Z,11.80
2022-10-11T08:02:34.092Z,11.80
2022-10-11T08:05:00.752Z,11.60
2022-10-11T08:07:27.558Z,12.00
2022-10-11T08:09:54.815Z,11.80
2022-10-11T08:12:21.465Z,12.10
2022-10-11T08:14:48.991Z,12.00
2022-10-11T08:17:15.759Z,12.20
2022-10-11T08:19:42.399Z,11.90
2022-10-11T08:22:09.046Z,12.30
2022-10-11T08:24:38.350Z,12.30
2022-10-11T08:27:05.235Z,12.40
2022-10-11T08:29:32.521Z,12.80
2022-10-11T08:32:00.339Z,13.40
2022-10-11T08:34:27.161Z,12.80
2022-10-11T08:36:53.851Z,12.80
2022-10-11T08:39:20.494Z,12.60
2022-10-11T08:41:52.851Z,12.90
2022-10-11T08:44:58.294Z,12.90
2022-10-11T08:47:32.685Z,14.00
2022-10-11T08:50:00.394Z,12.60
2022-10-11T08:52:41.168Z,12.60
2022-10-11T08:55:16.999Z,13.10
2022-10-11T08:57:48.250Z,13.20
2022-10-11T09:00:18.730Z,13.20
2022-10-11T09:03:07.908Z,13.20
2022-10-11T09:05:45.976Z,13.60
2022-10-11T09:08:22.023Z,13.40
2022-10-11T09:10:56.883Z,13.20
2022-10-11T09:13:57.590Z,13.20
2022-10-11T09:16:37.447Z,13.50
2022-10-11T09:19:37.527Z,13.70
2022-10-11T09:22:11.790Z,13.90
2022-10-11T09:24:59.658Z,13.80
2022-10-11T09:28:00.878Z,13.90
2022-10-11T09:30:21.359Z,14.00
2022-10-11T09:33:09.523Z,14.20
2022-10-11T09:35:46.124Z,14.30
2022-10-11T09:38:24.757Z,14.00
2022-10-11T09:41:06.497Z,14.10
2022-10-11T09:43:33.366Z,14.10
2022-10-11T09:46:00.873Z,14.30
2022-10-11T09:48:37.184Z,14.30
2022-10-11T09:51:11.604Z,14.20
2022-10-11T09:53:57.035Z,14.40
2022-10-11T09:56:26.812Z,14.50
2022-10-11T09:59:27.116Z,14.60
2022-10-11T10:02:19.539Z,14.70
2022-10-11T10:04:57.719Z,14.70
2022-10-11T10:07:25.342Z,14.70
2022-10-11T10:09:52.415Z,14.60
2022-10-11T10:12:25.728Z,14.80
2022-10-11T10:15:02.898Z,14.80
2022-10-11T10:17:30.449Z,14.60
2022-10-11T10:20:00.225Z,14.60
2022-10-11T10:22:30.800Z,14.70
2022-10-11T10:25:00.785Z,14.60
2022-10-11T10:27:31.077Z,14.50
2022-10-11T10:30:14.968Z,14.20
2022-10-11T10:32:50.850Z,15.00
2022-10-11T10:35:30.512Z,15.40
2022-10-11T10:38:09.790Z,15.00
2022-10-11T10:40:42.271Z,15.20
2022-10-11T10:43:15.283Z,15.10
2022-10-11T10:46:05.812Z,15.20
2022-10-11T10:49:19.079Z,15.30
2022-10-11T10:51:39.658Z,15.50
2022-10-11T10:54:14.939Z,15.20
2022-10-11T10:56:48.300Z,15.40
2022-10-11T10:59:35.885Z,15.50
2022-10-11T11:02:35.460Z,15.20
2022-10-11T11:05:08.287Z,15.90
2022-10-11T11:07:43.202Z,15.10
2022-10-11T11:10:21.129Z,15.30
2022-10-11T11:12:55.985Z,15.10
2022-10-11T11:15:32.632Z,15.20
2022-10-11T11:18:16.545Z,14.90
2022-10-11T11:21:02.615Z,14.90
2022-10-11T11:23:37.780Z,15.10
2022-10-11T11:26:14.579Z,15.20
2022-10-11T11:28:55.605Z,15.00
2022-10-11T11:31:35.793Z,15.20
2022-10-11T11:34:10.323Z,15.10
2022-10-11T11:36:43.187Z,15.30
2022-10-11T11:39:16.277Z,15.50
2022-10-11T11:41:47.835Z,15.70
2022-10-11T11:44:21.796Z,15.70
2022-10-11T11:46:56.651Z,16.00
2022-10-11T11:49:29.263Z,16.40
2022-10-11T11:51:57.387Z,16.60
2022-10-11T11:54:35.692Z,15.60
2022-10-11T11:57:13.055Z,15.50
2022-10-11T11:59:46.473Z,15.20
2022-10-11T12:02:32.538Z,15.10
2022-10-11T12:05:01.355Z,15.30
2022-10-11T12:07:32.867Z,15.00
2022-10-11T12:10:22.386Z,14.90
2022-10-11T12:13:05.786Z,14.90
2022-10-11T12:15:32.844Z,14.80
2022-10-11T12:18:15.114Z,14.90
2022-10-11T12:20:43.836Z,15.20
2022-10-11T12:23:47.234Z,15.20
2022-10-11T12:26:33.597Z,15.60
2022-10-11T12:29:24.576Z,15.70
2022-10-11T12:32:26.860Z,15.60
2022-10-11T12:35:37.101Z,15.50
2022-10-11T12:38:13.489Z,15.50
2022-10-11T12:40:42.325Z,15.10
2022-10-11T12:43:19.884Z,18.00
2022-10-11T12:45:47.884Z,20.80
2022-10-11T12:48:48.795Z,20.50
2022-10-11T12:51:34.020Z,18.70
2022-10-11T12:54:40.561Z,21.40
2022-10-11T12:57:46.781Z,24.00
2022-10-11T13:00:20.692Z,25.50
2022-10-11T13:02:49.100Z,26.90
2022-10-11T13:05:22.964Z,27.90
2022-10-11T13:07:51.247Z,27.80
2022-10-11T13:10:24.703Z,27.30
2022-10-11T13:12:53.225Z,27.00
2022-10-11T13:15:21.734Z,27.00
2022-10-11T13:17:52.133Z,26.60
2022-10-11T13:20:21.330Z,26.40
2022-10-11T13:22:52.524Z,26.60
2022-10-11T13:25:23.295Z,26.40
2022-10-11T13:27:52.349Z,25.90
2022-10-11T13:30:21.505Z,23.80
2022-10-11T13:32:49.044Z,23.20
2022-10-11T13:35:23.891Z,21.20
2022-10-11T13:37:51.813Z,19.80
2022-10-11T13:40:20.688Z,19.20
2022-10-11T13:42:49.439Z,18.90
2022-10-11T13:45:19.582Z,19.60
2022-10-11T13:47:48.150Z,20.80
2022-10-11T13:50:51.667Z,22.80
2022-10-11T13:53:25.088Z,24.90
2022-10-11T13:55:53.921Z,24.90
2022-10-11T13:58:26.914Z,23.80
2022-10-11T14:00:56.287Z,24.00
2022-10-11T14:03:25.326Z,23.80
2022-10-11T14:05:54.628Z,24.20
2022-10-11T14:08:26.469Z,24.00
2022-10-11T14:10:57.164Z,23.50
2022-10-11T14:13:30.704Z,24.20
2022-10-11T14:16:28.253Z,22.80
2022-10-11T14:19:07.841Z,21.40
2022-10-11T14:21:50.451Z,20.20
2022-10-11T14:24:18.800Z,18.10
2022-10-11T14:26:47.517Z,16.60
2022-10-11T14:29:20.735Z,15.60
2022-10-11T14:31:48.788Z,16.20
2022-10-11T14:34:18.729Z,16.00
2022-10-11T14:36:45.485Z,15.90
2022-10-11T14:39:15.938Z,15.60
2022-10-11T14:41:44.019Z,15.50
2022-10-11T14:44:11.297Z,15.80
2022-10-11T14:46:38.571Z,15.70
2022-10-11T14:49:11.367Z,15.50
2022-10-11T14:51:39.061Z,15.40
2022-10-11T14:54:06.045Z,15.40
2022-10-11T14:56:32.894Z,15.30
2022-10-11T14:59:00.415Z,15.30
2022-10-11T15:01:27.301Z,15.60
2022-10-11T15:03:54.195Z,15.20
2022-10-11T15:06:24.045Z,15.20
2022-10-11T15:08:51.257Z,15.30
2022-10-11T15:11:19.780Z,15.10
2022-10-11T15:13:47.239Z,15.20
2022-10-11T15:16:18.218Z,15.00
2022-10-11T15:18:50.168Z,15.10
2022-10-11T15:21:18.620Z,15.10
2022-10-11T15:23:45.513Z,15.10
2022-10-11T15:26:15.098Z,15.00
2022-10-11T15:28:42.297Z,14.90
2022-10-11T15:31:09.574Z,14.90
2022-10-11T15:33:37.683Z,14.90
2022-10-11T15:36:05.764Z,14.90
2022-10-11T15:38:33.007Z,14.90
2022-10-11T15:41:00.384Z,14.70
2022-10-11T15:43:27.337Z,14.80
2022-10-11T15:45:54.953Z,14.70
2022-10-11T15:48:23.093Z,14.60
2022-10-11T15:50:50.844Z,14.70
2022-10-11T15:53:19.541Z,14.50
2022-10-11T15:55:49.155Z,14.50
2022-10-11T15:58:17.790Z,14.40
2022-10-11T16:00:45.838Z,14.60
2022-10-11T16:03:13.553Z,14.30
2022-10-11T16:05:44.792Z,14.40
2022-10-11T16:08:12.749Z,13.90
2022-10-11T16:10:40.486Z,14.40
2022-10-11T16:13:11.402Z,14.10
2022-10-11T16:15:40.080Z,14.00
2022-10-11T16:18:07.692Z,14.00
2022-10-11T16:20:37.423Z,13.80
2022-10-11T16:23:04.450Z,13.60
2022-10-11T16:25:32.085Z,13.60
2022-10-11T16:27:58.804Z,13.40
2022-10-11T16:30:25.747Z,13.40
2022-10-11T16:32:56.446Z,13.30
2022-10-11T16:35:23.235Z,13.20
2022-10-11T16:37:50.124Z,13.00
2022-10-11T16:40:19.629Z,12.90
2022-10-11T16:42:47.329Z,12.80
2022-10-11T16:45:16.249Z,12.80
2022-10-11T16:47:56.930Z,12.70
2022-10-11T16:50:23.889Z,12.60
2022-10-11T16:52:52.602Z,12.50
2022-10-11T16:55:19.350Z,10.90
2022-10-11T16:57:46.645Z,12.50
2022-10-11T17:00:14.881Z,12.60
2022-10-11T17:02:41.661Z,12.30
2022-10-11T17:05:08.467Z,12.30
2022-10-11T17:07:35.081Z,12.30
2022-10-11T17:10:01.827Z,12.20
2022-10-11T17:12:28.583Z,12.20
2022-10-11T17:14:56.074Z,12.40
2022-10-11T17:17:22.836Z,11.80
2022-10-11T17:19:49.855Z,12.00
2022-10-11T17:22:19.001Z,12.10
2022-10-11T17:24:48.675Z,12.00
2022-10-11T17:27:15.596Z,12.00
2022-10-11T17:29:45.278Z,11.80
2022-10-11T17:32:12.775Z,11.80
2022-10-11T17:34:39.752Z,11.80
2022-10-11T17:37:09.203Z,11.70
2022-10-11T17:39:35.876Z,11.60
2022-10-11T17:42:06.618Z,11.60
2022-10-11T17:44:34.841Z,11.60
2022-10-11T17:47:03.106Z,11.50
2022-10-11T17:49:31.303Z,11.50
2022-10-11T17:51:58.272Z,11.60
2022-10-11T17:54:25.998Z,11.50
2022-10-11T17:56:53.875Z,11.70
2022-10-11T17:59:21.583Z,11.50
2022-10-11T18:01:49.597Z,11.20
2022-10-11T18:04:18.705Z,11.30
2022-10-11T18:06:47.518Z,11.30
2022-10-11T18:09:17.557Z,11.50
2022-10-11T18:11:44.807Z,11.20
2022-10-11T18:14:13.617Z,11.20
2022-10-11T18:16:59.484Z,10.80
2022-10-11T18:19:26.763Z,10.80
2022-10-11T18:21:54.306Z,11.20
2022-10-11T18:24:21.594Z,10.80
2022-10-11T18:26:49.104Z,11.00
2022-10-11T18:29:20.522Z,10.30
2022-10-11T18:31:47.397Z,11.40
2022-10-11T18:34:15.197Z,10.90
2022-10-11T18:36:42.488Z,10.80
2022-10-11T18:39:13.541Z,10.60
2022-10-11T18:41:43.601Z,10.70
2022-10-11T18:44:13.523Z,11.00
2022-10-11T18:46:40.730Z,10.90
2022-10-11T18:49:08.130Z,11.10
2022-10-11T18:51:36.944Z,10.70
2022-10-11T18:54:04.640Z,10.60
2022-10-11T18:56:32.779Z,10.90
2022-10-11T18:59:04.146Z,10.80
2022-10-11T19:01:32.694Z,10.20
2022-10-11T19:04:03.890Z,10.70
2022-10-11T19:06:32.955Z,9.70
2022-10-11T19:09:02.247Z,10.50
2022-10-11T19:11:29.309Z,10.40
2022-10-11T19:13:58.523Z,10.40
2022-10-11T19:16:27.046Z,10.40
2022-10-11T19:18:55.985Z,10.40
2022-10-11T19:21:22.885Z,10.30
2022-10-11T19:23:49.908Z,10.50
2022-10-11T19:26:20.532Z,10.40
2022-10-11T19:28:48.192Z,10.20
2022-10-11T19:31:17.776Z,10.50
2022-10-11T19:33:47.431Z,9.70
2022-10-11T19:36:14.387Z,10.20
2022-10-11T19:38:44.977Z,10.30
2022-10-11T19:41:12.202Z,10.60
2022-10-11T19:43:39.079Z,10.10
2022-10-11T19:46:07.824Z,10.40
2022-10-11T19:48:40.625Z,9.90
2022-10-11T19:51:09.259Z,10.10
2022-10-11T19:53:36.697Z,10.10
2022-10-11T19:56:05.210Z,10.00
2022-10-11T19:58:35.470Z,10.00
2022-10-11T20:01:04.800Z,10.00
2022-10-11T20:03:34.073Z,9.80
2022-10-11T20:06:02.028Z,9.80
2022-10-11T20:08:30.654Z,9.90
2022-10-11T20:10:58.014Z,9.80
2022-10-11T20:13:25.095Z,10.10
2022-10-11T20:15:56.167Z,9.80
2022-10-11T20:18:22.920Z,9.70
2022-10-11T20:20:53.719Z,9.80
2022-10-11T20:23:25.198Z,9.80
2022-10-11T20:26:04.016Z,9.70
2022-10-11T20:28:32.208Z,9.70
2022-10-11T20:30:59.053Z,9.80
2022-10-11T20:33:26.365Z,9.50
2022-10-11T20:36:00.610Z,9.50
2022-10-11T20:38:29.088Z,9.50
2022-10-11T20:40:55.844Z,9.40
2022-10-11T20:43:23.138Z,9.40
2022-10-11T20:46:03.991Z,9.70
2022-10-11T20:48:35.533Z,9.50
2022-10-11T20:51:02.888Z,9.60
2022-10-11T20:53:30.451Z,9.40
2022-10-11T20:55:57.145Z,9.50
2022-10-11T20:58:24.044Z,8.70
2022-10-11T21:00:50.877Z,9.40
2022-10-11T21:03:17.905Z,9.40
2022-10-11T21:05:45.031Z,9.30
2022-10-11T21:08:12.294Z,9.30
2022-10-11T21:10:40.400Z,9.40
2022-10-11T21:13:07.708Z,9.50
2022-10-11T21:15:35.040Z,9.40
2022-10-11T21:18:01.740Z,9.50
2022-10-11T21:20:28.355Z,9.20
2022-10-11T21:22:55.232Z,9.20
2022-10-11T21:25:21.811Z,9.30
2022-10-11T21:27:49.432Z,9.20
2022-10-11T21:30:18.696Z,9.20
2022-10-11T21:32:45.299Z,9.10
2022-10-11T21:35:11.952Z,9.30
2022-10-11T21:37:38.573Z,8.90
2022-10-11T21:40:09.362Z,9.10
2022-10-11T21:42:36.169Z,9.00
2022-10-11T21:45:08.546Z,9.00
2022-10-11T21:47:40.959Z,9.50
2022-10-11T21:50:08.172Z,9.10
2022-10-11T21:52:34.952Z,9.20
2022-10-11T21:55:02.374Z,8.80
2022-10-11T21:57:29.010Z,9.00
2022-10-11T21:59:55.616Z,9.00
2022-10-11T22:02:22.875Z,9.00
2022-10-11T22:04:49.559Z,8.90
2022-10-11T22:07:16.182Z,8.90
2022-10-11T22:09:42.863Z,8.90
2022-10-11T22:12:09.794Z,8.60
2022-10-11T22:14:36.463Z,8.80
2022-10-11T22:17:03.281Z,8.90
2022-10-11T22:19:30.506Z,8.70
2022-10-11T22:21:57.150Z,8.70
2022-10-11T22:24:23.866Z,8.50
2022-10-11T22:26:50.642Z,8.70
2022-10-11T22:29:17.254Z,10.80
2022-10-11T22:31:43.958Z,8.80
2022-10-11T22:34:10.576Z,8.70
2022-10-11T22:36:37.834Z,8.70
2022-10-11T22:39:07.257Z,8.70
2022-10-11T22:41:34.627Z,8.70
2022-10-11T22:44:01.271Z,8.90
2022-10-11T22:46:28.041Z,8.90
2022-10-11T22:48:54.666Z,8.70
2022-10-11T22:51:21.351Z,8.70
2022-10-11T22:53:50.024Z,8.60
2022-10-11T22:56:16.638Z,8.60
2022-10-11T22:58:43.287Z,8.50
2022-10-11T23:01:11.697Z,8.50
2022-10-11T23:03:38.686Z,8.50
2022-10-11T23:06:05.899Z,8.60
2022-10-11T23:08:32.570Z,8.50
2022-10-11T23:11:03.531Z,8.30
2022-10-11T23:13:30.131Z,8.40
2022-10-11T23:15:56.794Z,8.40
2022-10-11T23:18:23.387Z,8.70
2022-10-11T23:20:50.026Z,8.40
2022-10-11T23:23:16.703Z,8.30
2022-10-11T23:25:43.278Z,8.30
2022-10-11T23:28:10.594Z,8.60
2022-10-11T23:30:39.757Z,8.20
2022-10-11T23:33:06.406Z,8.50
2022-10-11T23:35:34.182Z,8.20
2022-10-11T23:38:00.798Z,8.20
2022-10-11T23:40:27.556Z,8.30
2022-10-11T23:42:54.113Z,8.20
2022-10-11T23:45:21.371Z,8.40
2022-10-11T23:47:47.935Z,8.40
2022-10-11T23:50:14.704Z,8.40
2022-10-11T23:52:41.390Z,8.30
2022-10-11T23:55:08.693Z,8.20
2022-10-11T23:57:35.531Z,8.20
